Time;durP1;ratioP1;P1;durP2;ratioP2;P2;SDS_P1;SDS_P2;PMS_P1;PMS_P2;Temp;Humidity;BMP_temperature;BMP_pressure;BME280_temperature;BME280_humidity;BME280_pressure;Samples;Min_cycle;Max_cycle;Signal;HPM_P1;HPM_P2
2021/09/03 06:04:54;;;;;;;386.20;363.40;;;11.40;99.90;;;;;;6276184;22;20605;-84
2021/09/03 06:07:21;;;;;;;395.27;369.10;;;11.40;99.90;;;;;;6276986;22;20403;-76
2021/09/03 06:38:43;;;;;;;390.30;365.10;;;12.60;99.90;;;;;;6277208;22;20784;-80
2021/09/03 10:20:50;;;;;;;12.30;9.00;;;28.00;9.70;;;;;;6276154;22;20764;-77
2021/09/03 10:40:09;;;;;;;10.93;7.07;;;28.70;5.80;;;;;;6275826;22;20527;-87
2021/09/03 10:43:20;;;;;;;10.53;6.97;;;29.00;3.00;;;;;;6278405;22;20468;-80
2021/09/03 11:03:33;;;;;;;10.90;7.33;;;30.00;3.00;;;;;;6276449;22;20912;-82
2021/09/03 11:09:25;;;;;;;10.67;6.67;;;30.50;3.30;;;;;;6135642;22;20507;-75
2021/09/03 11:11:54;;;;;;;10.00;6.80;;;30.90;1.00;;;;;;6287062;22;20406;-80
2021/09/03 11:14:23;;;;;;;10.23;6.53;;;30.50;1.00;;;;;;6285180;22;20433;-78
2021/09/03 11:16:53;;;;;;;9.63;6.30;;;30.50;1.00;;;;;;6276908;22;20377;-79
2021/09/03 11:19:21;;;;;;;10.27;6.83;;;31.10;1.00;;;;;;6276740;22;20434;-83
2021/09/03 11:21:51;;;;;;;11.43;6.60;;;31.10;1.00;;;;;;6276839;22;20481;-78
2021/09/03 11:27:41;;;;;;;10.90;5.93;;;31.60;1.00;;;;;;6281173;22;20425;-78
2021/09/03 11:30:12;;;;;;;9.03;6.00;;;31.70;1.00;;;;;;6275317;22;20406;-78
2021/09/03 11:32:39;;;;;;;12.33;5.70;;;32.10;1.00;;;;;;6276429;22;20477;-79
2021/09/03 11:35:07;;;;;;;9.57;6.00;;;32.10;1.00;;;;;;6276799;22;20426;-79
2021/09/03 11:51:47;;;;;;;;;;;;;;;;;;;;;
2021/09/03 15:07:56;;;;;;;7.80;5.00;;;33.10;1.00;;;;;;6192849;22;20392;-89
2021/09/03 15:10:23;;;;;;;6.70;4.30;;;33.40;1.00;;;;;;6227508;23;20465;-87
2021/09/03 15:12:50;;;;;;;6.93;4.07;;;33.40;1.00;;;;;;6213482;23;20400;-88
2021/09/03 15:15:17;;;;;;;7.90;5.20;;;32.50;1.00;;;;;;6213918;23;20428;-87
2021/09/03 15:17:44;;;;;;;7.00;4.90;;;31.80;1.00;;;;;;6214754;23;20404;-87
2021/09/03 15:20:11;;;;;;;6.47;4.47;;;32.30;1.00;;;;;;6225188;23;20410;-88
2021/09/03 15:28:48;;;;;;;7.50;4.97;;;33.60;1.00;;;;;;6247524;22;20231;-83
2021/09/03 15:31:18;;;;;;;8.53;5.07;;;32.80;1.00;;;;;;6257352;23;20767;-78
2021/09/03 15:33:57;;;;;;;7.97;5.27;;;32.50;1.00;;;;;;6247706;23;20377;-81
2021/09/03 15:36:28;;;;;;;7.57;4.90;;;32.60;1.00;;;;;;6256964;23;20888;-89
2021/09/03 15:38:55;;;;;;;8.63;5.03;;;31.70;1.00;;;;;;6246738;23;20403;-79
2021/09/03 15:41:22;;;;;;;7.63;5.60;;;31.70;1.00;;;;;;6257315;23;20411;-79
2021/09/03 15:43:50;;;;;;;8.37;5.07;;;31.50;1.00;;;;;;6245519;23;20603;-80
2021/09/03 15:46:18;;;;;;;9.13;5.77;;;31.30;1.00;;;;;;6246924;23;20408;-80
2021/09/03 15:48:45;;;;;;;8.37;5.43;;;31.20;1.00;;;;;;6246850;23;20445;-79
2021/09/03 15:51:12;;;;;;;8.47;5.77;;;31.00;1.00;;;;;;6247011;23;20398;-78
2021/09/03 15:53:39;;;;;;;8.10;4.63;;;31.20;1.00;;;;;;6247038;23;20410;-78
2021/09/03 15:56:09;;;;;;;7.07;5.13;;;30.80;1.00;;;;;;6247015;23;20402;-86
2021/09/03 16:24:26;;;;;;;6.97;5.10;;;32.70;1.00;;;;;;6079968;23;20454;-90
2021/09/03 16:30:07;;;;;;;7.53;4.30;;;31.30;1.00;;;;;;6079838;23;20410;-84
2021/09/03 16:32:34;;;;;;;8.40;4.93;;;30.80;1.00;;;;;;6114234;23;20408;-84
2021/09/03 16:35:05;;;;;;;7.00;4.30;;;30.50;1.00;;;;;;6246649;23;20393;-83
2021/09/03 16:40:27;;;;;;;8.77;5.20;;;30.50;1.00;;;;;;6244387;23;20415;-85
2021/09/03 16:42:54;;;;;;;7.00;4.30;;;30.20;1.00;;;;;;6246565;23;20505;-81
2021/09/03 16:45:22;;;;;;;7.67;4.80;;;30.30;1.00;;;;;;6240209;23;20749;-84
2021/09/03 16:47:49;;;;;;;8.83;4.80;;;30.40;1.00;;;;;;6244071;23;20457;-83
2021/09/03 16:50:16;;;;;;;11.30;4.80;;;30.20;1.00;;;;;;6245985;23;20771;-80
2021/09/03 16:52:43;;;;;;;6.90;4.20;;;29.90;1.00;;;;;;6256445;23;20396;-81
2021/09/03 16:55:11;;;;;;;9.53;4.70;;;29.70;1.00;;;;;;6256512;23;20457;-84
2021/09/03 16:57:39;;;;;;;9.23;5.93;;;29.90;1.00;;;;;;6245730;23;20403;-80
2021/09/03 17:00:08;;;;;;;10.53;6.07;;;29.30;1.00;;;;;;6254930;23;20408;-85
2021/09/03 17:02:35;;;;;;;9.47;6.60;;;28.70;1.00;;;;;;6256436;23;20477;-80
2021/09/03 17:05:02;;;;;;;10.77;7.70;;;28.00;1.00;;;;;;6245897;23;20403;-80
2021/09/03 17:07:28;;;;;;;9.10;6.73;;;27.80;1.00;;;;;;6246234;22;20466;-80
2021/09/03 17:09:55;;;;;;;13.60;9.30;;;27.50;1.00;;;;;;6245895;23;20474;-85
2021/09/03 17:12:22;;;;;;;11.73;7.03;;;27.20;1.40;;;;;;6249503;23;20453;-79
2021/09/03 17:14:50;;;;;;;20.43;8.50;;;27.10;1.50;;;;;;6252025;23;20426;-86
2021/09/03 17:17:17;;;;;;;21.03;7.13;;;27.10;2.00;;;;;;6251261;23;20427;-83
2021/09/03 17:19:45;;;;;;;11.77;8.20;;;27.00;3.20;;;;;;6246063;23;20453;-84
2021/09/03 17:22:12;;;;;;;10.30;7.63;;;26.90;5.00;;;;;;6246432;23;20399;-87
2021/09/03 17:24:40;;;;;;;10.30;7.93;;;26.90;4.00;;;;;;6246723;23;20438;-80
2021/09/03 17:27:09;;;;;;;11.27;8.03;;;26.80;7.60;;;;;;6247303;23;20403;-86
2021/09/03 17:29:36;;;;;;;12.50;7.80;;;26.80;5.60;;;;;;6256457;23;20395;-85
2021/09/03 17:32:05;;;;;;;19.93;8.60;;;26.80;5.90;;;;;;6272853;23;20404;-83
2021/09/03 17:34:33;;;;;;;11.30;7.10;;;26.80;6.10;;;;;;6257814;23;20411;-81
2021/09/03 17:37:00;;;;;;;10.57;7.77;;;26.70;6.50;;;;;;6248705;23;20886;-82
2021/09/03 17:39:29;;;;;;;17.27;7.40;;;26.50;6.60;;;;;;6256489;23;20404;-88
2021/09/03 17:41:55;;;;;;;11.50;8.17;;;26.20;7.40;;;;;;6244939;23;20461;-81
2021/09/03 17:44:22;;;;;;;16.43;7.47;;;25.80;8.60;;;;;;6252761;23;20443;-81
2021/09/03 17:46:49;;;;;;;14.13;8.00;;;25.70;10.30;;;;;;6254210;23;20786;-80
2021/09/03 17:49:18;;;;;;;15.77;9.73;;;25.40;11.50;;;;;;6244285;23;20407;-82
2021/09/03 17:51:45;;;;;;;15.23;8.83;;;25.00;12.50;;;;;;6244293;23;20496;-88
2021/09/03 17:54:12;;;;;;;13.33;9.80;;;24.60;14.20;;;;;;6253787;23;20413;-86
2021/09/03 19:50:33;;;;;;;20.67;17.10;;;17.10;91.60;;;;;;6246216;22;20908;-85
2021/09/03 19:53:14;;;;;;;20.60;15.90;;;16.90;92.20;;;;;;6252891;23;20434;-81
2021/09/03 19:58:57;;;;;;;24.13;21.57;;;16.60;94.90;;;;;;6245213;23;20466;-84
2021/09/03 20:04:08;;;;;;;29.57;26.47;;;16.20;98.40;;;;;;6242360;22;20926;-81
